Time;durP1;ratioP1;P1;durP2;ratioP2;P2;SDS_P1;SDS_P2;PMS_P1;PMS_P2;Temp;Humidity;BMP_temperature;BMP_pressure;BME280_temperature;BME280_humidity;BME280_pressure;Samples;Min_cycle;Max_cycle;Signal;HPM_P1;HPM_P2
2021/12/26 00:00:28;;;;;;;35.40;5.37;;;4.00;99.90;;;;;;4995841;28;20048;-87
2021/12/26 00:02:54;;;;;;;18.60;4.77;;;4.00;99.90;;;;;;4995237;28;20046;-87
2021/12/26 00:05:21;;;;;;;19.97;5.00;;;4.00;99.90;;;;;;4995532;28;20053;-87
2021/12/26 00:07:47;;;;;;;20.07;4.83;;;4.00;99.90;;;;;;4993400;28;20026;-87
2021/12/26 00:10:15;;;;;;;31.93;5.13;;;4.00;99.90;;;;;;4996512;28;20027;-87
2021/12/26 00:12:41;;;;;;;14.43;5.13;;;4.00;99.90;;;;;;4996677;28;20959;-87
2021/12/26 00:15:07;;;;;;;12.37;4.37;;;4.00;99.90;;;;;;4993604;28;20026;-87
2021/12/26 00:17:33;;;;;;;10.33;4.20;;;4.00;99.90;;;;;;4996732;28;20037;-89
2021/12/26 00:19:59;;;;;;;15.87;5.57;;;4.00;99.90;;;;;;4996676;28;20106;-87
2021/12/26 00:22:25;;;;;;;21.17;4.57;;;4.00;99.90;;;;;;4999396;28;20479;-87
2021/12/26 00:24:51;;;;;;;15.47;4.67;;;4.00;99.90;;;;;;4997215;28;20038;-87
2021/12/26 00:27:18;;;;;;;11.97;5.10;;;4.20;99.90;;;;;;4998181;28;20026;-86
2021/12/26 00:29:45;;;;;;;13.60;5.20;;;4.10;99.90;;;;;;4998004;28;20024;-86
2021/12/26 00:32:10;;;;;;;12.80;4.97;;;4.10;99.90;;;;;;4996774;28;20104;-85
2021/12/26 00:34:37;;;;;;;12.23;4.63;;;4.10;99.90;;;;;;4997187;28;20026;-86
2021/12/26 00:37:04;;;;;;;13.50;4.80;;;4.10;99.90;;;;;;4996082;28;20068;-86
2021/12/26 00:39:30;;;;;;;18.87;5.57;;;4.10;99.90;;;;;;4995872;28;20023;-86
2021/12/26 00:41:56;;;;;;;17.27;5.07;;;4.10;99.90;;;;;;4999358;28;20030;-87
2021/12/26 00:44:22;;;;;;;21.00;5.17;;;4.10;99.90;;;;;;5013979;28;20122;-86
2021/12/26 00:46:50;;;;;;;36.30;6.27;;;4.10;99.90;;;;;;4996776;28;20049;-89
2021/12/26 00:49:16;;;;;;;21.70;5.43;;;4.10;99.90;;;;;;4996747;28;20037;-86
2021/12/26 00:51:41;;;;;;;34.67;6.23;;;4.00;99.90;;;;;;4997356;28;20022;-87
2021/12/26 00:54:07;;;;;;;24.00;5.60;;;4.00;99.90;;;;;;4998662;28;20029;-87
2021/12/26 00:56:33;;;;;;;20.07;4.77;;;4.00;99.90;;;;;;4998167;28;20030;-87
2021/12/26 00:58:59;;;;;;;38.27;5.67;;;4.10;99.90;;;;;;4997562;28;20045;-87
2021/12/26 01:01:24;;;;;;;33.90;6.63;;;4.00;99.90;;;;;;4998032;28;20053;-87
2021/12/26 01:03:50;;;;;;;33.47;5.80;;;4.00;99.90;;;;;;4996921;28;20041;-87
2021/12/26 01:06:16;;;;;;;47.47;5.93;;;4.00;99.90;;;;;;4999752;28;20041;-87
2021/12/26 01:08:43;;;;;;;20.70;5.07;;;3.90;99.90;;;;;;4998684;28;20041;-87
2021/12/26 01:11:34;;;;;;;24.90;5.23;;;3.90;99.90;;;;;;4998473;28;20022;-87
2021/12/26 01:14:04;;;;;;;43.93;6.43;;;3.80;99.90;;;;;;4995351;28;20019;-87
2021/12/26 01:16:30;;;;;;;68.30;6.20;;;3.80;99.90;;;;;;4994697;28;20113;-87
2021/12/26 01:19:03;;;;;;;49.10;6.40;;;3.80;99.90;;;;;;4997925;28;20046;-87
2021/12/26 01:21:29;;;;;;;35.83;5.30;;;3.90;99.90;;;;;;5011289;28;20022;-86
2021/12/26 01:24:01;;;;;;;20.37;5.30;;;3.90;99.90;;;;;;4996753;28;20441;-87
2021/12/26 01:26:28;;;;;;;25.47;5.20;;;3.80;99.90;;;;;;4998371;28;20034;-87
2021/12/26 01:28:54;;;;;;;28.17;5.80;;;3.80;99.90;;;;;;5006874;28;20037;-86
2021/12/26 01:31:20;;;;;;;16.13;5.60;;;3.80;99.90;;;;;;5012790;28;20050;-86
2021/12/26 01:33:53;;;;;;;41.70;5.83;;;3.80;99.90;;;;;;4993767;28;20105;-86
2021/12/26 01:36:19;;;;;;;20.47;5.30;;;3.80;99.90;;;;;;5012923;28;20026;-87
2021/12/26 01:38:45;;;;;;;29.60;5.53;;;3.90;99.90;;;;;;4997700;28;20033;-86
2021/12/26 01:41:11;;;;;;;16.77;4.73;;;3.90;99.90;;;;;;4998079;28;20421;-87
2021/12/26 01:43:39;;;;;;;14.40;5.10;;;3.90;99.90;;;;;;5013933;28;20061;-87
2021/12/26 01:46:06;;;;;;;22.97;5.47;;;3.90;99.90;;;;;;4996379;28;20058;-87
2021/12/26 01:48:32;;;;;;;17.17;4.57;;;3.90;99.90;;;;;;4996101;28;20023;-88
2021/12/26 01:50:57;;;;;;;33.43;4.73;;;3.90;99.90;;;;;;4997368;28;20034;-88
2021/12/26 01:53:26;;;;;;;26.50;4.47;;;3.90;99.90;;;;;;4995945;28;20394;-87
2021/12/26 01:55:53;;;;;;;15.27;4.17;;;3.90;99.90;;;;;;4995786;28;20030;-88
2021/12/26 01:58:20;;;;;;;31.80;4.33;;;3.90;99.90;;;;;;4995465;28;20019;-88
2021/12/26 02:01:00;;;;;;;14.23;4.70;;;3.90;99.90;;;;;;4996887;28;20090;-87
2021/12/26 02:03:26;;;;;;;19.20;4.37;;;3.90;99.90;;;;;;4996054;28;20366;-88
2021/12/26 02:05:51;;;;;;;20.37;4.27;;;3.80;99.90;;;;;;4997048;28;20034;-88
2021/12/26 02:08:18;;;;;;;22.53;4.47;;;4.00;99.90;;;;;;4995656;28;20038;-88
2021/12/26 02:10:43;;;;;;;21.30;4.80;;;3.90;99.90;;;;;;4996197;28;20461;-87
2021/12/26 02:13:09;;;;;;;25.07;4.37;;;3.90;99.90;;;;;;4996556;28;20034;-88
2021/12/26 02:15:35;;;;;;;29.93;4.60;;;3.90;99.90;;;;;;4996608;28;20026;-87
2021/12/26 02:18:01;;;;;;;18.90;4.30;;;3.90;99.90;;;;;;4997075;28;20494;-87
2021/12/26 02:23:10;;;;;;;27.30;4.70;;;3.90;99.90;;;;;;4997119;28;20030;-87
2021/12/26 02:28:21;;;;;;;29.20;4.73;;;3.90;99.90;;;;;;4996151;28;20033;-87
2021/12/26 02:30:49;;;;;;;26.60;4.77;;;3.90;99.90;;;;;;4995855;28;20022;-88
2021/12/26 02:33:16;;;;;;;25.23;3.97;;;3.80;99.90;;;;;;4994880;28;20034;-87
2021/12/26 02:35:42;;;;;;;39.47;4.67;;;3.80;99.90;;;;;;4994947;28;20043;-88
2021/12/26 02:38:09;;;;;;;45.33;4.77;;;3.80;99.90;;;;;;4996448;28;20078;-88
2021/12/26 02:40:35;;;;;;;11.77;3.77;;;3.80;99.90;;;;;;4994615;28;20478;-87
2021/12/26 02:43:01;;;;;;;22.90;4.43;;;3.80;99.90;;;;;;4992011;28;20154;-87
2021/12/26 02:45:26;;;;;;;16.07;4.00;;;3.80;99.90;;;;;;4996358;28;20030;-87
2021/12/26 02:47:52;;;;;;;28.77;3.77;;;3.80;99.90;;;;;;4995741;28;20034;-88
2021/12/26 02:50:22;;;;;;;21.77;4.50;;;3.80;99.90;;;;;;4994912;28;20475;-87
2021/12/26 02:52:49;;;;;;;12.03;3.87;;;3.80;99.90;;;;;;5011409;28;20022;-88
2021/12/26 02:55:17;;;;;;;13.83;3.80;;;3.80;99.90;;;;;;4995015;28;20277;-88
2021/12/26 02:57:47;;;;;;;24.10;4.07;;;3.80;99.90;;;;;;4996549;28;20101;-87
2021/12/26 03:00:16;;;;;;;10.20;4.30;;;3.90;99.90;;;;;;4994189;28;20053;-87
2021/12/26 03:02:43;;;;;;;12.27;3.17;;;3.80;99.90;;;;;;4995893;28;20022;-89
2021/12/26 03:05:10;;;;;;;30.87;4.03;;;3.90;99.90;;;;;;4995590;28;20018;-87
2021/12/26 03:07:35;;;;;;;21.00;3.70;;;3.80;99.90;;;;;;4994803;28;20130;-88
2021/12/26 03:10:03;;;;;;;7.60;3.13;;;3.90;99.90;;;;;;4994795;28;20491;-88
2021/12/26 03:12:32;;;;;;;11.33;3.47;;;3.80;99.90;;;;;;4995864;28;20038;-87
2021/12/26 03:14:57;;;;;;;11.53;3.90;;;3.80;99.90;;;;;;4995799;28;20054;-88
2021/12/26 03:17:23;;;;;;;8.23;3.43;;;3.90;99.90;;;;;;5012222;28;20030;-87
2021/12/26 03:19:49;;;;;;;12.20;3.90;;;3.90;99.90;;;;;;4997935;28;20387;-88
2021/12/26 03:22:18;;;;;;;13.13;3.70;;;3.90;99.90;;;;;;4995968;28;21305;-88
2021/12/26 03:24:44;;;;;;;14.33;3.53;;;3.90;99.90;;;;;;4997238;28;20026;-88
2021/12/26 03:27:12;;;;;;;9.57;3.57;;;3.90;99.90;;;;;;4994177;28;20096;-87
2021/12/26 03:29:38;;;;;;;9.03;3.60;;;3.90;99.90;;;;;;4997023;28;20026;-88
2021/12/26 03:32:04;;;;;;;8.20;3.57;;;4.00;99.90;;;;;;5011094;28;20371;-87
2021/12/26 03:34:30;;;;;;;11.97;3.73;;;3.90;99.90;;;;;;4995690;28;20022;-88
2021/12/26 03:36:56;;;;;;;7.60;3.17;;;3.90;99.90;;;;;;4994598;28;20791;-87
2021/12/26 03:39:23;;;;;;;8.70;3.57;;;3.90;99.90;;;;;;5010869;28;20367;-87
2021/12/26 03:41:50;;;;;;;11.13;3.70;;;3.90;99.90;;;;;;4990207;28;20039;-87
2021/12/26 03:44:16;;;;;;;7.83;3.50;;;3.90;99.90;;;;;;4994141;28;20022;-87
2021/12/26 03:46:42;;;;;;;12.60;4.17;;;3.90;99.90;;;;;;4991375;28;20073;-88
2021/12/26 03:49:08;;;;;;;8.23;3.70;;;3.90;99.90;;;;;;4995319;28;20022;-86
2021/12/26 03:51:34;;;;;;;8.30;3.43;;;3.90;99.90;;;;;;4993907;28;20032;-87
2021/12/26 03:54:03;;;;;;;8.20;3.77;;;3.90;99.90;;;;;;4994350;28;20014;-88
2021/12/26 03:56:31;;;;;;;12.13;4.20;;;3.90;99.90;;;;;;5007570;28;20019;-87
2021/12/26 03:58:58;;;;;;;10.30;3.40;;;3.90;99.90;;;;;;4994131;28;20034;-87
2021/12/26 04:01:25;;;;;;;9.40;3.50;;;3.90;99.90;;;;;;4993728;28;20042;-87
2021/12/26 04:03:50;;;;;;;8.67;3.73;;;3.90;99.90;;;;;;4995753;28;20045;-87
2021/12/26 04:06:16;;;;;;;11.07;4.20;;;3.90;99.90;;;;;;4993616;28;20491;-87
2021/12/26 04:08:42;;;;;;;10.10;3.50;;;3.90;99.90;;;;;;4993836;28;20023;-88
2021/12/26 04:11:07;;;;;;;8.07;3.73;;;3.90;99.90;;;;;;4995186;28;20467;-87
2021/12/26 04:13:35;;;;;;;22.83;4.40;;;3.90;99.90;;;;;;4986105;28;20030;-88
2021/12/26 04:16:01;;;;;;;12.07;3.23;;;3.90;99.90;;;;;;4993543;28;20049;-88
2021/12/26 04:18:27;;;;;;;15.40;3.73;;;3.90;99.90;;;;;;5010477;28;20025;-88
2021/12/26 04:20:52;;;;;;;9.27;3.73;;;3.90;99.90;;;;;;4994166;28;20038;-88
2021/12/26 04:23:18;;;;;;;11.03;4.00;;;3.80;99.90;;;;;;4993107;28;20495;-87
2021/12/26 04:25:44;;;;;;;14.23;3.97;;;3.80;99.90;;;;;;4995297;28;20514;-87
2021/12/26 04:28:11;;;;;;;10.00;3.60;;;3.80;99.90;;;;;;4995445;28;20386;-87
2021/12/26 04:30:37;;;;;;;15.67;4.50;;;3.80;99.90;;;;;;4993744;28;20045;-87
2021/12/26 04:33:04;;;;;;;20.13;4.53;;;3.90;99.90;;;;;;4994099;28;20040;-87
2021/12/26 04:35:30;;;;;;;12.93;3.90;;;3.80;99.90;;;;;;4993238;28;20022;-88
2021/12/26 04:37:57;;;;;;;14.50;4.10;;;3.80;99.90;;;;;;4996177;28;20023;-87
2021/12/26 04:40:23;;;;;;;18.50;4.07;;;3.80;99.90;;;;;;5009358;28;20089;-88
2021/12/26 04:42:50;;;;;;;13.43;3.93;;;3.90;99.90;;;;;;4993411;28;20022;-88
2021/12/26 04:45:16;;;;;;;12.53;3.90;;;3.90;99.90;;;;;;4994309;28;20505;-88
2021/12/26 04:47:43;;;;;;;10.77;4.10;;;3.90;99.90;;;;;;4993940;28;20079;-87
2021/12/26 04:50:12;;;;;;;10.03;3.80;;;3.90;99.90;;;;;;4995034;28;20031;-87
2021/12/26 04:52:40;;;;;;;10.27;3.83;;;3.80;99.90;;;;;;4994437;28;20382;-88
2021/12/26 04:55:07;;;;;;;11.67;4.33;;;3.80;99.90;;;;;;5009221;28;20402;-88
2021/12/26 04:57:33;;;;;;;11.37;4.30;;;3.80;99.90;;;;;;4992780;28;20040;-87
2021/12/26 04:59:59;;;;;;;8.60;4.27;;;3.80;99.90;;;;;;4991735;28;20117;-88
2021/12/26 05:02:27;;;;;;;12.37;3.50;;;3.80;99.90;;;;;;5001933;28;20110;-88
2021/12/26 05:04:53;;;;;;;12.93;3.57;;;3.80;99.90;;;;;;4992123;28;20109;-87
2021/12/26 05:07:18;;;;;;;18.20;3.87;;;3.90;99.90;;;;;;4992424;28;20493;-87
2021/12/26 05:09:46;;;;;;;11.03;4.13;;;3.90;99.90;;;;;;4991296;28;20045;-88
2021/12/26 05:12:12;;;;;;;9.53;3.80;;;3.80;99.90;;;;;;4984718;28;20570;-87
2021/12/26 05:14:37;;;;;;;13.67;4.93;;;3.80;99.90;;;;;;4993728;28;20026;-88
2021/12/26 05:17:03;;;;;;;14.03;4.20;;;3.80;99.90;;;;;;4992521;28;20080;-87
2021/12/26 05:19:29;;;;;;;11.00;4.57;;;3.90;99.90;;;;;;5008097;28;20066;-87
2021/12/26 05:21:54;;;;;;;10.63;4.47;;;3.90;99.90;;;;;;4990885;28;20058;-88
2021/12/26 05:24:20;;;;;;;11.00;4.03;;;3.90;99.90;;;;;;4990745;28;20061;-88
2021/12/26 05:26:45;;;;;;;16.93;4.60;;;3.90;99.90;;;;;;4990778;28;20030;-87
2021/12/26 05:29:11;;;;;;;17.23;3.83;;;3.90;99.90;;;;;;4989018;23;20486;-89
2021/12/26 05:31:39;;;;;;;7.90;3.70;;;3.90;99.90;;;;;;4952660;29;20024;-88
2021/12/26 05:34:05;;;;;;;8.97;3.90;;;3.90;99.90;;;;;;4957684;28;20055;-88
2021/12/26 05:36:31;;;;;;;12.13;4.57;;;3.90;99.90;;;;;;4976529;28;20019;-87
2021/12/26 05:38:57;;;;;;;10.53;4.03;;;3.90;99.90;;;;;;4957799;28;20019;-88
2021/12/26 05:41:26;;;;;;;10.07;4.70;;;3.90;99.90;;;;;;4956309;29;20444;-86
2021/12/26 05:43:51;;;;;;;8.10;3.70;;;3.90;99.90;;;;;;4955255;29;20054;-88
2021/12/26 05:46:17;;;;;;;19.80;4.27;;;4.00;99.90;;;;;;4974136;28;20412;-88
2021/12/26 05:48:43;;;;;;;19.63;4.53;;;3.90;99.90;;;;;;4971109;28;20374;-87
2021/12/26 05:51:08;;;;;;;18.30;4.43;;;3.90;99.90;;;;;;4977680;28;20049;-88
2021/12/26 05:53:37;;;;;;;15.63;4.50;;;4.00;99.90;;;;;;4978705;28;20020;-87
2021/12/26 05:56:03;;;;;;;10.10;4.60;;;4.00;99.90;;;;;;4954927;28;20064;-88
2021/12/26 05:58:29;;;;;;;13.73;4.63;;;4.00;99.90;;;;;;4989297;23;20050;-87
2021/12/26 06:00:58;;;;;;;12.67;4.20;;;4.00;99.90;;;;;;4986170;28;20027;-88
2021/12/26 06:03:23;;;;;;;11.97;4.17;;;4.00;99.90;;;;;;4972075;28;20112;-88
2021/12/26 06:05:52;;;;;;;13.97;4.70;;;3.90;99.90;;;;;;4976799;28;20044;-88
2021/12/26 06:08:18;;;;;;;12.77;3.60;;;3.90;99.90;;;;;;4952436;28;20028;-88
2021/12/26 06:10:44;;;;;;;24.03;4.57;;;4.00;99.90;;;;;;4940757;29;20043;-88
2021/12/26 06:13:10;;;;;;;10.83;4.50;;;3.90;99.90;;;;;;4940021;29;20419;-88
2021/12/26 06:15:38;;;;;;;12.57;4.20;;;3.90;99.90;;;;;;4939671;29;20059;-88
2021/12/26 06:18:04;;;;;;;12.43;4.47;;;3.90;99.90;;;;;;4937779;29;20167;-88
2021/12/26 06:20:30;;;;;;;10.43;4.67;;;4.00;99.90;;;;;;4937790;29;20028;-88
2021/12/26 06:22:56;;;;;;;11.10;4.40;;;3.90;99.90;;;;;;4941373;29;20027;-88
2021/12/26 06:25:25;;;;;;;8.87;4.07;;;4.00;99.90;;;;;;4954112;29;20326;-88
2021/12/26 06:27:50;;;;;;;11.77;5.10;;;4.00;99.90;;;;;;4942450;29;20023;-88
2021/12/26 06:30:16;;;;;;;10.73;4.57;;;3.90;99.90;;;;;;4939425;29;20416;-88
2021/12/26 06:32:42;;;;;;;8.60;3.70;;;4.00;99.90;;;;;;4943589;29;20066;-88
2021/12/26 06:35:08;;;;;;;8.90;3.90;;;3.90;99.90;;;;;;4937003;29;20019;-88
2021/12/26 06:37:35;;;;;;;9.80;4.37;;;4.00;99.90;;;;;;4941853;29;20116;-88
2021/12/26 06:40:01;;;;;;;9.17;4.37;;;4.00;99.90;;;;;;4937445;29;20031;-88
2021/12/26 06:42:30;;;;;;;10.30;4.20;;;4.10;99.90;;;;;;4960417;28;20024;-89
2021/12/26 06:44:58;;;;;;;11.70;5.13;;;4.00;99.90;;;;;;4939439;29;20024;-88
2021/12/26 06:47:25;;;;;;;12.07;4.63;;;4.10;99.90;;;;;;4943361;29;20083;-88
2021/12/26 06:49:51;;;;;;;11.87;4.33;;;4.00;99.90;;;;;;4938996;29;20036;-88
2021/12/26 06:52:19;;;;;;;12.33;4.73;;;4.10;99.90;;;;;;4943316;29;20084;-88
2021/12/26 06:54:47;;;;;;;11.10;4.47;;;4.10;99.90;;;;;;4943764;29;20032;-88
2021/12/26 06:57:20;;;;;;;14.47;4.67;;;4.00;99.90;;;;;;4945327;29;20115;-88
2021/12/26 06:59:48;;;;;;;12.30;4.57;;;4.00;99.90;;;;;;4942139;29;20032;-88
2021/12/26 07:02:14;;;;;;;10.27;4.23;;;4.00;99.90;;;;;;4941250;29;20106;-88
2021/12/26 07:04:40;;;;;;;11.30;4.77;;;4.10;99.90;;;;;;4937527;29;20032;-88
2021/12/26 07:07:06;;;;;;;8.90;4.27;;;4.00;99.90;;;;;;4945601;29;20043;-88
2021/12/26 07:09:34;;;;;;;11.83;5.03;;;4.10;99.90;;;;;;4944299;29;20024;-88
2021/12/26 07:12:00;;;;;;;14.27;5.50;;;4.10;99.90;;;;;;4944036;29;20028;-88
2021/12/26 07:14:28;;;;;;;12.33;4.57;;;4.10;99.90;;;;;;4946464;29;20507;-88
2021/12/26 07:16:57;;;;;;;11.97;4.77;;;4.00;99.90;;;;;;4945895;29;20028;-88
2021/12/26 07:19:25;;;;;;;16.37;5.10;;;4.10;99.90;;;;;;4944639;29;20032;-88
2021/12/26 07:21:54;;;;;;;12.93;5.10;;;4.20;99.90;;;;;;4944928;29;20035;-88
2021/12/26 07:24:26;;;;;;;12.43;4.70;;;4.20;99.90;;;;;;4945969;29;20060;-89
2021/12/26 07:26:58;;;;;;;9.70;3.92;;;4.10;99.90;;;;;;4944434;29;20061;-88
2021/12/26 07:29:23;;;;;;;12.70;4.53;;;4.20;99.90;;;;;;4959722;28;20035;-88
2021/12/26 07:31:52;;;;;;;11.67;4.67;;;4.10;99.90;;;;;;4942750;29;20020;-88
2021/12/26 07:34:18;;;;;;;11.30;4.03;;;4.20;99.90;;;;;;4940828;29;20023;-87
2021/12/26 07:36:44;;;;;;;10.40;4.43;;;4.20;99.90;;;;;;4944018;29;20430;-88
2021/12/26 07:39:20;;;;;;;12.73;4.60;;;4.10;99.90;;;;;;4941099;29;20024;-88
2021/12/26 07:41:48;;;;;;;10.57;4.40;;;4.20;99.90;;;;;;4940988;29;20083;-88
2021/12/26 07:44:16;;;;;;;11.70;4.33;;;4.20;99.90;;;;;;4943066;29;20059;-88
2021/12/26 07:46:42;;;;;;;12.57;4.97;;;4.20;99.90;;;;;;4944835;29;20027;-88
2021/12/26 07:49:13;;;;;;;11.77;4.80;;;4.20;99.90;;;;;;4944169;29;20039;-87
2021/12/26 07:51:52;;;;;;;11.93;4.80;;;4.20;99.90;;;;;;4945142;29;20063;-87
2021/12/26 07:54:23;;;;;;;10.67;4.53;;;4.10;99.90;;;;;;4938681;29;20031;-87
2021/12/26 07:56:58;;;;;;;11.60;5.13;;;4.30;99.90;;;;;;4938763;29;20036;-87
2021/12/26 07:59:37;;;;;;;13.30;4.87;;;4.20;99.90;;;;;;4943180;29;20046;-88
2021/12/26 08:02:06;;;;;;;12.00;5.13;;;4.20;99.90;;;;;;4941121;29;20122;-88
2021/12/26 08:04:39;;;;;;;10.10;4.97;;;4.30;99.90;;;;;;4943485;29;20031;-88
2021/12/26 08:07:06;;;;;;;10.60;4.87;;;4.30;99.90;;;;;;4942128;29;20540;-88
2021/12/26 08:09:38;;;;;;;12.80;4.80;;;4.30;99.90;;;;;;4940339;29;20059;-88
2021/12/26 08:12:39;;;;;;;9.40;4.30;;;4.30;99.90;;;;;;4941501;29;20040;-86
2021/12/26 08:15:07;;;;;;;11.00;4.67;;;4.30;99.90;;;;;;4918325;29;20490;-87
2021/12/26 08:17:38;;;;;;;11.90;5.20;;;4.30;99.90;;;;;;4939844;29;20067;-88
2021/12/26 08:20:12;;;;;;;10.20;4.67;;;4.30;99.90;;;;;;4937058;29;20079;-88
2021/12/26 08:22:44;;;;;;;10.53;4.60;;;4.40;99.90;;;;;;4936628;29;20537;-88
2021/12/26 08:25:18;;;;;;;9.88;4.43;;;4.40;99.90;;;;;;4940275;29;20390;-88
2021/12/26 08:44:33;;;;;;;9.82;4.13;;;4.60;99.90;;;;;;4833635;29;20078;-88
2021/12/26 08:54:07;;;;;;;9.25;4.57;;;4.70;99.90;;;;;;4843558;29;20087;-90
2021/12/26 08:57:22;;;;;;;;;;;;;;;;;;;;;
2021/12/26 09:00:29;;;;;;;10.13;4.67;;;4.80;99.90;;;;;;4965264;28;20122;-90
2021/12/26 09:02:59;;;;;;;10.70;4.30;;;4.70;99.90;;;;;;4969730;28;20472;-90
2021/12/26 09:05:26;;;;;;;11.70;4.70;;;4.70;99.90;;;;;;4969217;28;20026;-90
2021/12/26 09:07:58;;;;;;;9.87;4.50;;;4.70;99.90;;;;;;4953435;28;20059;-89
2021/12/26 09:10:29;;;;;;;9.30;4.13;;;4.80;99.90;;;;;;4968906;28;20081;-90
2021/12/26 09:12:57;;;;;;;9.27;4.55;;;4.80;99.90;;;;;;4968911;28;20034;-91
2021/12/26 09:15:23;;;;;;;11.80;4.50;;;4.80;99.90;;;;;;4954707;28;20101;-89
2021/12/26 09:17:49;;;;;;;10.77;4.50;;;4.80;99.90;;;;;;4971927;28;20101;-89
2021/12/26 09:20:17;;;;;;;9.87;4.17;;;4.80;99.90;;;;;;4956351;28;20140;-89
2021/12/26 09:22:43;;;;;;;9.03;4.23;;;4.80;99.90;;;;;;4952555;28;20487;-90
2021/12/26 09:25:13;;;;;;;7.73;3.97;;;4.90;99.90;;;;;;4951981;28;20031;-89
2021/12/26 09:27:39;;;;;;;10.00;4.37;;;4.80;99.90;;;;;;4950876;28;20037;-89
2021/12/26 09:30:11;;;;;;;8.87;4.40;;;4.80;99.90;;;;;;4972085;28;20035;-88
2021/12/26 09:32:39;;;;;;;10.37;4.70;;;4.70;99.90;;;;;;4966156;28;20034;-89
2021/12/26 09:35:10;;;;;;;8.73;4.00;;;4.80;99.90;;;;;;4954276;28;20027;-89
2021/12/26 09:37:41;;;;;;;11.35;4.70;;;4.80;99.90;;;;;;4963752;28;20501;-89
2021/12/26 09:40:14;;;;;;;9.20;4.37;;;4.80;99.90;;;;;;4968691;28;20026;-88
2021/12/26 09:42:43;;;;;;;9.20;4.13;;;4.80;99.90;;;;;;4967531;28;20038;-89
2021/12/26 09:45:09;;;;;;;10.10;4.20;;;4.80;99.90;;;;;;4948221;28;20031;-88
2021/12/26 09:47:42;;;;;;;11.80;5.13;;;4.90;99.90;;;;;;4954402;28;20034;-90
2021/12/26 09:50:12;;;;;;;12.03;4.57;;;4.90;99.90;;;;;;4954211;28;20027;-89
2021/12/26 09:52:44;;;;;;;10.50;5.03;;;4.90;99.90;;;;;;4970613;28;20022;-89
2021/12/26 09:55:11;;;;;;;9.23;4.53;;;5.00;99.90;;;;;;4970744;28;20031;-89
2021/12/26 09:57:38;;;;;;;8.07;4.33;;;5.00;99.90;;;;;;4965407;28;20225;-89
2021/12/26 10:00:35;;;;;;;10.27;4.73;;;5.00;99.90;;;;;;4968444;28;20019;-89
2021/12/26 10:03:36;;;;;;;10.67;5.10;;;5.00;99.90;;;;;;4971207;28;20014;-89
2021/12/26 10:06:13;;;;;;;10.40;4.93;;;5.00;99.90;;;;;;4850257;29;20064;-88
2021/12/26 10:09:03;;;;;;;10.20;4.70;;;5.10;99.90;;;;;;4952218;28;20451;-89
2021/12/26 10:11:35;;;;;;;11.70;4.90;;;5.10;99.90;;;;;;4955272;28;20027;-88
2021/12/26 10:14:07;;;;;;;9.38;4.82;;;5.20;99.90;;;;;;4966000;28;20031;-90
2021/12/26 10:16:42;;;;;;;13.05;4.95;;;5.20;99.90;;;;;;4974147;28;20043;-88
2021/12/26 10:19:09;;;;;;;8.23;4.33;;;5.30;99.90;;;;;;4970881;28;20389;-89
2021/12/26 10:21:37;;;;;;;9.17;4.60;;;5.30;99.90;;;;;;4953880;28;20031;-88
2021/12/26 10:24:25;;;;;;;9.87;4.57;;;5.40;99.90;;;;;;4964626;28;20539;-88
2021/12/26 10:26:57;;;;;;;8.50;4.23;;;5.50;99.90;;;;;;4955606;28;20031;-89
2021/12/26 10:29:38;;;;;;;9.57;4.83;;;5.40;99.90;;;;;;4956900;28;20118;-88
2021/12/26 10:32:16;;;;;;;10.93;5.23;;;5.50;99.90;;;;;;4951912;28;20493;-89
2021/12/26 10:34:47;;;;;;;12.03;5.00;;;5.60;99.90;;;;;;4973498;28;20031;-89
2021/12/26 10:37:19;;;;;;;9.52;4.25;;;5.60;99.90;;;;;;4969729;28;20031;-89
2021/12/26 10:39:52;;;;;;;8.60;3.95;;;5.70;99.90;;;;;;4956824;28;20031;-89
2021/12/26 10:42:24;;;;;;;8.07;4.07;;;5.70;99.90;;;;;;4970538;28;20092;-88
2021/12/26 10:44:56;;;;;;;10.35;3.42;;;5.70;99.90;;;;;;4956739;28;20059;-88
2021/12/26 10:47:25;;;;;;;7.03;3.53;;;5.80;99.90;;;;;;4951678;28;20035;-89
2021/12/26 10:50:00;;;;;;;8.57;3.57;;;5.80;99.90;;;;;;4967528;28;20035;-89
2021/12/26 10:52:29;;;;;;;9.93;4.57;;;5.90;99.90;;;;;;4953319;28;20162;-89
2021/12/26 10:55:02;;;;;;;9.17;3.60;;;6.00;99.90;;;;;;4971184;28;20022;-90
2021/12/26 10:57:29;;;;;;;;;;;6.00;99.90;;;;;;4955337;28;20026;-90
2021/12/26 11:00:06;;;;;;;8.30;3.53;;;6.00;99.90;;;;;;4957531;28;19910;-89
2021/12/26 11:02:34;;;;;;;8.33;4.07;;;6.00;99.90;;;;;;4966341;28;20039;-89
2021/12/26 11:05:16;;;;;;;8.30;3.40;;;6.00;99.90;;;;;;4961252;28;20026;-89
2021/12/26 11:07:55;;;;;;;9.65;3.95;;;5.90;99.90;;;;;;4961189;28;20061;-89
2021/12/26 11:10:42;;;;;;;8.00;3.90;;;5.90;99.90;;;;;;4972697;28;20141;-88
2021/12/26 11:13:19;;;;;;;8.17;3.40;;;5.90;99.90;;;;;;4975173;28;20030;-89
2021/12/26 11:15:46;;;;;;;8.07;4.13;;;5.90;99.90;;;;;;4974082;28;20093;-88
2021/12/26 11:18:17;;;;;;;7.37;3.50;;;5.90;99.90;;;;;;4948777;28;20066;-89
2021/12/26 11:20:45;;;;;;;9.37;4.17;;;5.90;99.90;;;;;;4971582;28;20126;-89
2021/12/26 11:23:23;;;;;;;8.60;4.67;;;6.00;99.90;;;;;;4972005;28;20043;-88
2021/12/26 11:26:02;;;;;;;10.83;4.63;;;6.00;99.90;;;;;;4967360;28;20452;-88
2021/12/26 11:28:31;;;;;;;7.07;3.93;;;6.00;99.90;;;;;;4994300;23;20043;-88
2021/12/26 11:31:10;;;;;;;7.97;4.27;;;6.20;99.90;;;;;;4989819;28;20034;-88
2021/12/26 11:33:40;;;;;;;10.77;4.90;;;6.20;99.90;;;;;;4980408;28;20042;-89
2021/12/26 11:36:11;;;;;;;7.57;3.93;;;6.30;99.90;;;;;;4968027;28;20507;-90
2021/12/26 11:38:40;;;;;;;9.00;4.63;;;6.40;99.90;;;;;;4976141;28;20027;-88
2021/12/26 11:41:15;;;;;;;10.00;4.27;;;6.50;99.90;;;;;;4961854;28;20035;-89
2021/12/26 11:44:20;;;;;;;7.63;4.07;;;6.60;99.90;;;;;;4960833;28;20054;-89
2021/12/26 11:46:55;;;;;;;9.17;4.33;;;6.60;99.90;;;;;;4958578;28;20390;-89
2021/12/26 11:49:43;;;;;;;9.17;3.87;;;6.70;99.90;;;;;;4958648;28;20027;-88
2021/12/26 11:52:50;;;;;;;9.13;4.40;;;6.70;99.90;;;;;;4955997;29;20042;-88
2021/12/26 11:55:21;;;;;;;8.83;3.73;;;6.80;99.90;;;;;;4953964;29;20094;-88
2021/12/26 11:58:24;;;;;;;9.23;3.90;;;7.00;99.90;;;;;;4967854;28;20023;-89
2021/12/26 12:00:53;;;;;;;10.07;4.03;;;7.10;99.90;;;;;;4975425;28;20039;-89
2021/12/26 12:03:31;;;;;;;9.43;4.13;;;7.10;99.90;;;;;;4959677;28;20027;-89
2021/12/26 12:05:58;;;;;;;9.27;4.57;;;7.10;99.90;;;;;;4957642;28;20118;-90
2021/12/26 12:08:29;;;;;;;7.30;3.90;;;7.10;99.90;;;;;;4977588;28;20027;-88
2021/12/26 12:11:02;;;;;;;7.97;4.00;;;7.10;99.90;;;;;;4960457;28;20416;-90
2021/12/26 12:13:49;;;;;;;8.77;4.07;;;7.10;99.90;;;;;;4977758;28;20027;-89
2021/12/26 12:16:50;;;;;;;8.20;4.40;;;7.10;99.90;;;;;;4978949;28;20034;-88
2021/12/26 12:19:27;;;;;;;7.13;3.63;;;7.20;99.90;;;;;;4968128;28;20034;-90
2021/12/26 12:22:27;;;;;;;9.57;4.23;;;7.30;99.90;;;;;;4990457;28;20023;-92
2021/12/26 12:25:19;;;;;;;7.40;3.47;;;7.40;99.90;;;;;;4975985;28;20039;-92
2021/12/26 12:28:17;;;;;;;6.97;3.70;;;7.50;99.90;;;;;;4974887;28;20280;-91
2021/12/26 12:30:54;;;;;;;6.77;3.50;;;7.60;99.90;;;;;;4972529;28;20064;-91
2021/12/26 12:33:36;;;;;;;6.17;3.10;;;7.70;99.90;;;;;;4976862;28;20038;-92
2021/12/26 12:36:52;;;;;;;9.13;3.53;;;7.70;99.90;;;;;;4977177;28;20031;-91
2021/12/26 12:39:33;;;;;;;6.80;3.33;;;7.80;99.90;;;;;;4972037;28;20030;-91
2021/12/26 12:42:05;;;;;;;6.10;3.27;;;7.90;99.90;;;;;;4972073;28;20030;-92
2021/12/26 12:44:44;;;;;;;5.67;3.10;;;7.80;99.90;;;;;;4981863;28;20372;-91
2021/12/26 12:47:24;;;;;;;6.27;3.33;;;7.80;99.90;;;;;;4985106;28;20043;-91
2021/12/26 12:50:03;;;;;;;7.63;3.37;;;7.80;99.90;;;;;;4983015;28;20027;-91
2021/12/26 12:53:01;;;;;;;6.50;3.00;;;7.80;99.90;;;;;;4967321;28;20039;-91
2021/12/26 12:55:51;;;;;;;9.00;4.07;;;7.80;99.90;;;;;;4983718;28;20014;-90
2021/12/26 12:58:25;;;;;;;6.47;3.27;;;7.70;99.90;;;;;;4984164;28;20550;-90
2021/12/26 13:00:55;;;;;;;6.93;3.57;;;7.60;99.90;;;;;;4983362;28;20022;-91
2021/12/26 13:03:37;;;;;;;8.07;3.93;;;7.60;99.90;;;;;;4964987;28;20019;-89
2021/12/26 13:06:11;;;;;;;6.73;3.30;;;7.50;99.90;;;;;;4965611;28;20062;-90
2021/12/26 13:08:38;;;;;;;6.43;3.93;;;7.50;99.90;;;;;;5017849;23;20073;-90
2021/12/26 13:11:38;;;;;;;6.70;3.57;;;7.50;99.90;;;;;;4985936;28;20408;-91
2021/12/26 13:14:08;;;;;;;6.60;3.10;;;7.50;99.90;;;;;;4982772;28;20042;-91
2021/12/26 13:17:06;;;;;;;7.93;3.50;;;7.40;99.90;;;;;;4983447;28;20019;-90
2021/12/26 13:19:42;;;;;;;7.70;3.27;;;7.40;99.90;;;;;;4992219;28;20027;-91
2021/12/26 13:22:17;;;;;;;8.00;3.50;;;7.30;99.90;;;;;;4963925;28;20015;-91
2021/12/26 13:24:56;;;;;;;;;;;;;;;;;;;;;
2021/12/26 13:27:24;;;;;;;8.70;3.20;;;7.30;99.90;;;;;;4963365;29;20090;-91
2021/12/26 13:29:57;;;;;;;6.87;3.63;;;7.30;99.90;;;;;;4978043;28;20023;-91
2021/12/26 13:32:43;;;;;;;8.87;3.10;;;7.30;99.90;;;;;;4966679;28;20090;-90
2021/12/26 13:35:18;;;;;;;8.17;3.70;;;7.40;99.90;;;;;;4965825;29;20111;-92
2021/12/26 13:38:10;;;;;;;5.37;2.80;;;7.40;99.90;;;;;;4964686;28;20492;-91
2021/12/26 13:41:13;;;;;;;;;;;;;;;;;;;;;
2021/12/26 13:47:17;;;;;;;5.60;3.27;;;7.50;99.90;;;;;;4966088;29;20062;-91